Time;durP1;ratioP1;P1;durP2;ratioP2;P2;SDS_P1;SDS_P2;PMS_P1;PMS_P2;Temp;Humidity;BMP_temperature;BMP_pressure;BME280_temperature;BME280_humidity;BME280_pressure;Samples;Min_cycle;Max_cycle;Signal;HPM_P1;HPM_P2
2023/09/05 00:01:03;;;;;;;;;12.00;10.67;;;;;24.61;70.83;100027.28;5040621;28;45541;-84
2023/09/05 00:03:31;;;;;;;;;10.00;10.00;;;;;24.62;70.48;100029.03;5049111;28;45503;-84
2023/09/05 00:06:03;;;;;;;;;12.00;9.00;;;;;24.65;70.11;100038.72;5047570;28;45353;-84
2023/09/05 00:08:28;;;;;;;;;11.00;10.00;;;;;24.67;69.71;100032.44;5040428;28;45370;-84
2023/09/05 00:10:54;;;;;;;;;9.33;8.67;;;;;24.64;69.86;100035.19;5057924;28;45320;-84
2023/09/05 00:13:20;;;;;;;;;11.33;8.33;;;;;24.57;69.70;100028.31;5057440;28;45422;-84
2023/09/05 00:15:45;;;;;;;;;10.67;9.33;;;;;24.60;69.66;100041.59;5056320;28;45536;-78
2023/09/05 00:18:11;;;;;;;;;10.67;9.67;;;;;24.63;69.33;100049.50;5041065;28;45314;-82
2023/09/05 00:20:36;;;;;;;;;10.33;8.33;;;;;24.64;69.40;100039.69;5053007;28;45386;-84
2023/09/05 00:23:02;;;;;;;;;9.00;9.00;;;;;24.51;69.87;100040.13;5036494;28;46128;-83
2023/09/05 00:25:28;;;;;;;;;10.67;10.67;;;;;24.35;69.59;100030.84;5054206;28;45521;-84
2023/09/05 00:27:53;;;;;;;;;11.00;9.00;;;;;24.08;69.94;100009.56;5050400;28;45373;-75
2023/09/05 00:30:22;;;;;;;;;9.00;8.33;;;;;24.06;70.29;100026.53;5054860;28;45506;-84
2023/09/05 00:32:47;;;;;;;;;10.00;8.67;;;;;24.01;70.64;100024.91;5056920;28;46233;-84
2023/09/05 00:35:14;;;;;;;;;8.33;8.33;;;;;24.03;70.78;100027.50;5051971;28;45477;-82
2023/09/05 00:37:39;;;;;;;;;8.33;8.00;;;;;24.04;70.43;100023.06;5036656;28;45445;-84
2023/09/05 00:40:05;;;;;;;;;10.33;9.00;;;;;24.07;70.65;100014.94;5047814;28;45547;-84
2023/09/05 00:42:31;;;;;;;;;9.00;9.00;;;;;24.03;70.19;100003.50;5056115;28;45579;-84
2023/09/05 00:44:57;;;;;;;;;10.00;9.00;;;;;24.08;70.66;100020.22;5052330;28;45653;-83
2023/09/05 00:47:28;;;;;;;;;9.67;9.00;;;;;24.07;70.33;100007.78;5036801;28;45375;-85
2023/09/05 00:49:54;;;;;;;;;10.33;10.33;;;;;24.09;70.44;100013.09;5037220;28;45461;-74
2023/09/05 00:52:22;;;;;;;;;8.00;8.00;;;;;24.09;70.33;100015.75;5036916;28;45526;-81
2023/09/05 00:54:47;;;;;;;;;11.67;10.33;;;;;24.11;70.23;100019.25;5036481;28;45435;-82
2023/09/05 00:57:19;;;;;;;;;9.67;9.67;;;;;23.75;69.83;99952.84;5036410;28;45300;-83
2023/09/05 00:59:45;;;;;;;;;9.00;9.00;;;;;24.13;69.30;100012.06;5037152;28;45289;-83
2023/09/05 01:02:11;;;;;;;;;9.67;7.67;;;;;24.07;68.71;100005.13;5036662;28;45303;-80
2023/09/05 01:04:37;;;;;;;;;9.00;8.00;;;;;23.96;69.98;99989.50;5036785;28;45374;-82
2023/09/05 01:07:50;;;;;;;;;10.00;8.00;;;;;23.96;70.05;99989.50;5036809;28;45331;-81
2023/09/05 01:10:28;;;;;;;;;10.00;8.33;;;;;23.85;69.56;99998.78;4965027;28;45533;-82
2023/09/05 01:12:58;;;;;;;;;9.33;8.00;;;;;23.76;69.82;99999.94;5036760;28;45239;-83
2023/09/05 01:15:24;;;;;;;;;10.00;9.00;;;;;23.77;69.93;99999.91;5036780;28;45422;-82
2023/09/05 01:17:54;;;;;;;;;9.00;8.67;;;;;23.76;69.48;99995.47;5037897;28;45351;-84
2023/09/05 01:20:26;;;;;;;;;11.00;8.00;;;;;23.80;69.10;99994.47;5040245;28;45574;-83
2023/09/05 01:23:17;;;;;;;;;8.67;8.00;;;;;23.79;69.45;99995.38;5040252;28;45478;-84
2023/09/05 01:25:45;;;;;;;;;9.33;8.33;;;;;23.65;69.57;99972.75;5039932;28;45499;-84
2023/09/05 01:28:11;;;;;;;;;9.67;7.67;;;;;23.63;69.65;99972.78;5039795;28;45483;-84
2023/09/05 01:30:40;;;;;;;;;9.00;7.00;;;;;23.72;69.32;99987.63;5040177;28;45356;-84
2023/09/05 01:33:06;;;;;;;;;10.33;9.00;;;;;23.72;69.53;99983.16;5039641;28;46215;-82
2023/09/05 01:35:31;;;;;;;;;5.00;5.00;;;;;23.70;69.46;99986.81;5039986;28;45407;-84
2023/09/05 01:37:58;;;;;;;;;7.67;7.67;;;;;23.68;69.25;99988.66;5040293;28;45272;-77
2023/09/05 01:40:23;;;;;;;;;10.33;8.00;;;;;23.70;69.24;99987.69;5040588;28;45519;-84
2023/09/05 01:42:49;;;;;;;;;8.33;8.00;;;;;23.73;69.19;99997.38;5039212;28;45518;-85
2023/09/05 01:45:15;;;;;;;;;7.00;7.00;;;;;23.72;69.51;100004.50;5039926;28;45279;-84
2023/09/05 01:47:40;;;;;;;;;9.67;8.33;;;;;23.69;69.01;100007.25;5039920;28;45309;-84
2023/09/05 01:50:06;;;;;;;;;10.67;8.67;;;;;23.77;68.62;100007.00;5039783;28;45488;-84
2023/09/05 01:52:32;;;;;;;;;8.67;8.33;;;;;23.78;67.98;100004.31;5039417;28;45370;-84
2023/09/05 01:54:57;;;;;;;;;10.33;8.00;;;;;23.71;68.31;99999.22;5039915;28;45269;-84
2023/09/05 01:57:23;;;;;;;;;9.00;8.33;;;;;23.78;67.89;100007.00;5040252;28;45343;-84
2023/09/05 01:59:49;;;;;;;;;12.33;9.67;;;;;23.61;68.92;100011.97;5039862;28;45447;-84
2023/09/05 02:02:14;;;;;;;;;8.67;7.67;;;;;23.63;68.91;100013.69;5039405;28;45547;-84
2023/09/05 02:04:40;;;;;;;;;8.33;6.67;;;;;23.60;68.67;100007.56;5039726;28;45557;-85
2023/09/05 02:07:06;;;;;;;;;9.00;8.00;;;;;23.62;68.54;100014.59;5039333;28;45601;-84
2023/09/05 02:09:32;;;;;;;;;7.00;6.00;;;;;23.62;68.43;100019.91;5039981;28;45486;-84
2023/09/05 02:11:57;;;;;;;;;8.67;7.67;;;;;23.64;68.03;100022.53;5039343;28;45991;-84
2023/09/05 02:14:23;;;;;;;;;8.00;7.00;;;;;23.53;67.74;100006.88;5039254;28;45446;-84
2023/09/05 02:16:49;;;;;;;;;7.33;6.00;;;;;23.63;67.63;100024.34;5039366;28;45354;-84
2023/09/05 02:19:15;;;;;;;;;9.33;7.67;;;;;23.59;67.72;100030.66;5039640;28;45640;-83
2023/09/05 02:21:40;;;;;;;;;8.00;6.00;;;;;23.59;67.68;100022.66;5038956;28;46062;-84
2023/09/05 02:24:06;;;;;;;;;10.00;7.33;;;;;23.59;67.70;100033.34;5039175;28;45272;-84
2023/09/05 02:26:32;;;;;;;;;6.67;6.00;;;;;23.59;66.70;100021.81;5039578;28;45438;-83
2023/09/05 02:28:58;;;;;;;;;8.00;8.00;;;;;23.62;66.42;100022.59;5038715;28;45422;-84
2023/09/05 02:31:25;;;;;;;;;9.00;7.00;;;;;23.65;66.57;100032.28;5039304;28;46328;-83
2023/09/05 02:33:51;;;;;;;;;9.33;6.33;;;;;23.49;66.72;99999.91;5039031;28;45458;-84
2023/09/05 02:36:20;;;;;;;;;7.33;6.33;;;;;23.65;66.63;100028.75;5039076;28;45490;-81
2023/09/05 02:38:47;;;;;;;;;9.67;8.00;;;;;23.67;65.70;100029.56;5039435;28;45447;-83
2023/09/05 02:41:16;;;;;;;;;7.00;7.00;;;;;23.62;65.46;100005.72;5038822;28;45481;-81
2023/09/05 02:43:42;;;;;;;;;8.00;7.67;;;;;23.68;65.71;100026.00;5038947;28;45492;-84
2023/09/05 02:46:08;;;;;;;;;10.67;8.00;;;;;23.57;65.78;100024.50;5038949;28;45486;-83
2023/09/05 02:48:39;;;;;;;;;7.33;6.33;;;;;23.49;66.26;100029.22;5039088;28;45488;-83
2023/09/05 02:51:06;;;;;;;;;9.33;8.33;;;;;23.45;66.77;100013.38;5038479;28;46228;-83
2023/09/05 02:53:36;;;;;;;;;7.00;7.00;;;;;23.52;66.70;100033.59;5042530;28;45428;-75
2023/09/05 02:56:05;;;;;;;;;11.00;7.00;;;;;23.47;66.54;100036.41;5047377;28;46074;-84
2023/09/05 02:58:31;;;;;;;;;8.67;5.00;;;;;23.44;66.75;100028.50;5047255;28;45158;-84
2023/09/05 03:01:12;;;;;;;;;7.00;6.00;;;;;23.48;66.71;100035.50;5046977;28;46154;-79
2023/09/05 03:03:38;;;;;;;;;8.00;7.00;;;;;23.49;66.06;100025.69;5046079;28;45422;-82
2023/09/05 03:06:11;;;;;;;;;7.00;6.00;;;;;23.43;65.82;100019.63;5046716;28;45409;-84
2023/09/05 03:08:49;;;;;;;;;10.33;8.00;;;;;23.46;65.75;100021.34;5048576;28;45373;-83
2023/09/05 03:11:20;;;;;;;;;9.67;7.00;;;;;23.42;65.91;100028.56;5049222;28;45232;-81
2023/09/05 03:13:48;;;;;;;;;10.00;7.33;;;;;23.40;66.13;100025.06;5047250;28;45307;-82
2023/09/05 03:16:14;;;;;;;;;9.00;8.00;;;;;23.40;66.50;100026.88;5054688;28;45522;-85
2023/09/05 03:18:40;;;;;;;;;12.00;8.67;;;;;23.38;65.95;100023.38;5070194;28;45482;-80
2023/09/05 03:21:07;;;;;;;;;13.00;6.33;;;;;23.41;65.46;100029.47;5066083;28;45185;-81
2023/09/05 03:23:34;;;;;;;;;9.67;7.00;;;;;23.40;66.19;100030.41;5064977;28;45349;-76
2023/09/05 03:26:00;;;;;;;;;10.33;7.33;;;;;23.37;65.75;100029.63;5050806;28;45677;-86
2023/09/05 03:28:44;;;;;;;;;10.33;7.00;;;;;23.38;65.54;100039.38;5064956;28;45496;-82
2023/09/05 03:31:10;;;;;;;;;6.33;6.33;;;;;23.39;64.89;100027.78;5050462;28;45409;-83
2023/09/05 03:33:36;;;;;;;;;10.00;7.00;;;;;23.40;65.43;100032.19;5062957;28;45398;-85
2023/09/05 03:36:05;;;;;;;;;9.33;8.00;;;;;23.40;65.00;100025.06;5058546;28;45307;-85
2023/09/05 03:38:32;;;;;;;;;11.00;7.67;;;;;23.38;64.82;100028.72;5062164;28;45365;-85
2023/09/05 03:40:58;;;;;;;;;7.33;7.33;;;;;23.38;64.54;100034.91;5037534;28;46390;-83
2023/09/05 03:43:24;;;;;;;;;8.33;7.00;;;;;23.42;64.87;100046.34;5042439;28;45397;-84
2023/09/05 03:45:51;;;;;;;;;8.67;6.00;;;;;23.42;64.55;100044.53;5059928;28;45595;-83
2023/09/05 03:48:17;;;;;;;;;12.67;8.67;;;;;23.40;64.77;100049.06;5062664;28;45752;-85
2023/09/05 03:50:43;;;;;;;;;11.33;6.00;;;;;23.38;64.77;100050.91;5063238;28;45496;-85
2023/09/05 03:53:08;;;;;;;;;10.00;8.00;;;;;23.33;64.76;100042.16;5064289;28;45299;-85
2023/09/05 03:55:34;;;;;;;;;9.67;6.67;;;;;23.27;65.12;100036.16;5050788;28;45404;-84
2023/09/05 03:58:04;;;;;;;;;6.33;5.33;;;;;23.32;64.99;100055.56;5064399;28;45309;-84
2023/09/05 04:00:33;;;;;;;;;9.00;7.33;;;;;23.32;65.16;100058.22;5057235;28;46130;-85
2023/09/05 04:03:04;;;;;;;;;9.33;7.00;;;;;23.18;64.95;100030.19;5044639;28;45423;-83
2023/09/05 04:05:32;;;;;;;;;11.67;8.33;;;;;23.32;65.33;100055.56;5045341;28;45341;-85
2023/09/05 04:07:57;;;;;;;;;7.67;7.00;;;;;23.27;65.58;100053.00;5065879;28;45410;-82
2023/09/05 04:10:24;;;;;;;;;8.00;7.00;;;;;23.31;64.91;100061.78;5064417;28;46021;-81
2023/09/05 04:12:52;;;;;;;;;6.00;6.00;;;;;23.28;64.73;100059.19;5065103;28;45292;-81
2023/09/05 04:15:23;;;;;;;;;9.00;7.67;;;;;23.22;64.37;100055.81;5064692;28;45244;-83
2023/09/05 04:17:50;;;;;;;;;8.67;6.00;;;;;23.28;64.20;100070.75;5075362;28;45548;-84
2023/09/05 04:20:18;;;;;;;;;14.00;9.33;;;;;23.19;64.93;100060.34;5060845;28;45281;-81
2023/09/05 04:22:45;;;;;;;;;11.33;6.00;;;;;23.25;64.39;100073.50;5064026;28;44806;-85
2023/09/05 04:25:14;;;;;;;;;9.00;7.33;;;;;23.22;65.18;100078.94;5057259;28;45233;-84
2023/09/05 04:27:40;;;;;;;;;11.00;8.67;;;;;23.23;64.65;100088.66;5054259;28;45297;-85
2023/09/05 04:30:07;;;;;;;;;20.00;15.67;;;;;23.19;64.52;100076.34;5047454;28;45161;-84
2023/09/05 04:32:34;;;;;;;;;13.67;11.00;;;;;23.22;64.63;100081.59;5044863;28;45208;-83
2023/09/05 04:35:05;;;;;;;;;9.67;9.00;;;;;23.20;64.69;100084.31;5044831;28;45427;-82
2023/09/05 04:37:32;;;;;;;;;12.00;8.67;;;;;23.21;64.25;100082.50;5045242;28;45395;-83
2023/09/05 04:40:00;;;;;;;;;8.00;7.00;;;;;23.23;64.55;100091.31;5044227;28;45253;-84
2023/09/05 04:42:26;;;;;;;;;14.33;8.33;;;;;23.11;64.65;100063.25;5043558;28;45463;-86
2023/09/05 04:44:52;;;;;;;;;10.67;9.00;;;;;23.22;64.62;100081.59;5045205;28;45249;-84
2023/09/05 04:47:29;;;;;;;;;7.00;6.00;;;;;23.21;64.15;100086.03;5046447;28;45255;-84
2023/09/05 04:49:58;;;;;;;;;8.33;6.67;;;;;23.19;64.98;100092.34;5045329;28;46011;-82
2023/09/05 04:52:29;;;;;;;;;9.33;7.67;;;;;23.20;64.73;100100.28;5044413;28;45338;-84
2023/09/05 04:54:57;;;;;;;;;9.00;7.67;;;;;23.20;64.47;100094.97;5044271;28;45315;-83
2023/09/05 04:57:23;;;;;;;;;9.00;8.00;;;;;23.18;65.12;100091.47;5045812;28;45520;-84
2023/09/05 04:59:48;;;;;;;;;8.67;7.33;;;;;23.02;65.03;100064.41;5044761;28;45486;-85
2023/09/05 05:02:18;;;;;;;;;11.33;8.00;;;;;23.18;65.37;100082.63;5051767;28;45653;-85
2023/09/05 05:04:43;;;;;;;;;15.33;11.67;;;;;23.16;64.41;100081.78;5036778;28;45413;-83
2023/09/05 05:07:09;;;;;;;;;11.67;8.00;;;;;23.16;64.58;100082.66;5044175;28;45468;-76
2023/09/05 05:09:35;;;;;;;;;8.00;4.67;;;;;23.16;64.70;100089.78;5056159;28;45516;-78
2023/09/05 05:12:01;;;;;;;;;7.67;7.00;;;;;23.10;65.22;100079.28;5040429;28;45450;-85
2023/09/05 05:14:28;;;;;;;;;10.00;8.33;;;;;23.07;65.02;100077.56;5055613;28;45350;-84
2023/09/05 05:16:54;;;;;;;;;9.33;8.67;;;;;23.15;64.35;100088.88;5055176;28;45538;-85
2023/09/05 05:19:21;;;;;;;;;7.00;7.00;;;;;23.17;64.65;100087.03;5055582;28;45472;-85
2023/09/05 05:21:48;;;;;;;;;10.33;9.00;;;;;23.15;64.38;100083.56;5050772;28;45628;-81
2023/09/05 05:24:14;;;;;;;;;8.67;6.67;;;;;23.18;64.38;100090.59;5055545;28;45528;-85
2023/09/05 05:26:39;;;;;;;;;8.33;7.00;;;;;23.00;64.77;100076.00;5055876;28;45478;-85
2023/09/05 05:29:05;;;;;;;;;15.00;8.67;;;;;23.03;64.54;100089.25;5055804;28;45460;-85
2023/09/05 05:31:33;;;;;;;;;10.00;9.00;;;;;23.09;64.29;100106.84;5055544;28;45169;-85
2023/09/05 05:33:59;;;;;;;;;9.67;8.00;;;;;23.09;64.39;100099.72;5043661;28;45535;-82
2023/09/05 05:36:26;;;;;;;;;10.67;7.00;;;;;23.11;64.66;100100.56;5048984;28;45588;-83
2023/09/05 05:38:52;;;;;;;;;10.33;8.00;;;;;23.06;64.31;100089.16;5054512;28;45706;-84
2023/09/05 05:41:18;;;;;;;;;11.33;9.00;;;;;23.11;64.26;100103.22;5053620;28;45592;-83
2023/09/05 05:43:44;;;;;;;;;7.33;6.67;;;;;23.13;64.19;100105.84;5054653;28;45585;-82
2023/09/05 05:46:11;;;;;;;;;10.33;8.67;;;;;23.13;63.98;100103.19;5054187;28;45524;-82
2023/09/05 05:48:38;;;;;;;;;6.67;6.00;;;;;22.98;63.91;100077.84;5040865;28;45286;-84
2023/09/05 05:51:04;;;;;;;;;8.67;8.00;;;;;23.26;64.19;100109.00;5052129;28;45449;-83
2023/09/05 05:53:32;;;;;;;;;12.33;8.00;;;;;23.22;64.26;100108.25;5042535;28;45448;-84
2023/09/05 05:55:58;;;;;;;;;9.00;7.67;;;;;23.27;63.65;100111.63;5038829;28;45722;-84
2023/09/05 05:58:24;;;;;;;;;17.67;16.00;;;;;23.37;63.64;100117.56;5054774;28;46075;-84
2023/09/05 06:00:52;;;;;;;;;12.00;11.00;;;;;23.50;62.89;100128.75;5046509;28;45174;-83
2023/09/05 06:03:20;;;;;;;;;13.67;11.33;;;;;23.53;63.21;100124.19;5048390;28;46627;-83
2023/09/05 06:05:47;;;;;;;;;10.67;8.33;;;;;23.58;63.46;100129.41;5055039;28;45454;-83
2023/09/05 06:08:14;;;;;;;;;10.00;9.00;;;;;23.47;64.55;100142.16;5037921;28;46541;-83
2023/09/05 06:10:40;;;;;;;;;11.00;8.00;;;;;23.14;64.68;100089.81;5057879;28;45239;-82
2023/09/05 06:13:06;;;;;;;;;10.00;7.67;;;;;23.46;64.56;100129.75;5057007;28;45513;-82
2023/09/05 06:15:32;;;;;;;;;12.67;8.00;;;;;23.27;64.61;100100.97;5048225;28;45388;-82
2023/09/05 06:18:00;;;;;;;;;8.67;8.67;;;;;23.53;64.60;100136.66;5051029;28;46233;-81
2023/09/05 06:20:25;;;;;;;;;7.67;7.00;;;;;23.49;64.23;100127.84;5055233;28;45390;-84
2023/09/05 06:22:51;;;;;;;;;13.33;13.00;;;;;23.46;64.71;100135.06;5057289;28;45462;-84
2023/09/05 06:25:17;;;;;;;;;7.67;7.00;;;;;23.54;63.93;100133.06;5050857;28;45474;-83
2023/09/05 06:27:43;;;;;;;;;11.33;10.00;;;;;23.64;63.54;100131.88;5031953;28;47789;-78
2023/09/05 06:30:13;;;;;;;;;9.00;8.00;;;;;23.87;63.32;100138.31;5052917;28;45682;-84
2023/09/05 06:32:39;;;;;;;;;8.33;7.00;;;;;24.11;62.62;100142.00;5039680;28;45512;-83
2023/09/05 06:35:05;;;;;;;;;11.67;9.67;;;;;24.32;62.15;100129.75;5051759;28;45442;-81
2023/09/05 06:37:33;;;;;;;;;10.67;8.00;;;;;24.58;61.43;100132.44;5040388;28;45476;-82
2023/09/05 06:40:00;;;;;;;;;7.00;5.67;;;;;24.78;60.93;100137.06;5053630;28;45464;-83
2023/09/05 06:42:26;;;;;;;;;10.67;8.00;;;;;25.04;60.63;100145.94;5039046;28;45285;-82
2023/09/05 06:44:53;;;;;;;;;11.67;9.00;;;;;25.25;59.52;100139.00;5035572;28;45648;-83
2023/09/05 06:47:18;;;;;;;;;11.00;8.33;;;;;26.06;58.12;100147.47;5040925;28;45552;-83
2023/09/05 06:49:44;;;;;;;;;9.67;9.00;;;;;27.12;56.00;100145.69;5027306;28;45374;-79
2023/09/05 06:52:10;;;;;;;;;9.67;8.33;;;;;28.15;53.11;100143.56;5043583;28;45485;-82
2023/09/05 06:54:35;;;;;;;;;13.67;9.67;;;;;29.03;51.73;100140.00;5041169;28;45453;-82
2023/09/05 06:57:01;;;;;;;;;9.33;8.33;;;;;29.78;49.97;100137.75;5046941;28;45323;-82
2023/09/05 06:59:27;;;;;;;;;8.00;6.33;;;;;30.26;48.52;100135.91;5045048;28;45633;-82
2023/09/05 07:01:54;;;;;;;;;14.00;8.33;;;;;30.61;47.20;100140.19;5043525;28;45429;-82
2023/09/05 07:04:19;;;;;;;;;11.67;9.00;;;;;31.15;45.48;100147.72;5045147;28;45385;-82
2023/09/05 07:06:47;;;;;;;;;10.00;9.00;;;;;31.56;45.40;100146.97;5056873;28;46075;-76
2023/09/05 07:09:14;;;;;;;;;7.67;6.00;;;;;31.98;44.56;100139.75;5039177;28;45674;-82
2023/09/05 07:11:40;;;;;;;;;9.33;8.00;;;;;32.60;42.02;100137.41;5039964;28;45505;-81
2023/09/05 07:14:06;;;;;;;;;11.00;9.33;;;;;33.31;41.18;100123.50;5053285;28;45550;-80
2023/09/05 07:16:31;;;;;;;;;8.00;7.33;;;;;33.77;40.98;100145.44;5046186;28;45550;-79
2023/09/05 07:18:57;;;;;;;;;9.00;7.00;;;;;34.40;39.21;100132.63;5057403;28;45295;-79
2023/09/05 07:21:23;;;;;;;;;7.00;5.00;;;;;35.08;39.40;100146.41;5057190;28;45386;-77
2023/09/05 07:23:48;;;;;;;;;7.00;6.00;;;;;35.73;34.19;100123.09;5057796;28;45311;-77
2023/09/05 07:26:14;;;;;;;;;10.67;7.00;;;;;36.51;34.45;100145.63;5054408;28;45516;-76
2023/09/05 07:28:39;;;;;;;;;7.00;7.00;;;;;37.03;34.76;100149.28;5041125;28;45569;-76
2023/09/05 07:31:05;;;;;;;;;8.67;4.67;;;;;37.44;34.05;100143.06;5056055;28;45506;-76
2023/09/05 07:33:31;;;;;;;;;9.67;7.33;;;;;37.73;34.28;100140.47;5056280;28;45857;-77
2023/09/05 07:35:57;;;;;;;;;7.67;7.67;;;;;38.20;34.50;100130.69;5056036;28;46151;-78
2023/09/05 07:38:23;;;;;;;;;10.67;10.00;;;;;38.87;32.61;100140.84;5043053;28;45474;-77
2023/09/05 07:40:59;;;;;;;;;10.00;6.33;;;;;39.27;34.75;100135.13;5024098;28;45400;-73
2023/09/05 07:43:25;;;;;;;;;5.33;5.33;;;;;39.67;32.17;100142.16;5040079;28;45775;-76
2023/09/05 07:45:50;;;;;;;;;10.67;8.33;;;;;39.77;31.89;100142.13;5039162;28;45455;-74
2023/09/05 07:48:16;;;;;;;;;6.00;5.33;;;;;40.05;31.11;100132.06;5040867;28;45398;-77
2023/09/05 07:50:42;;;;;;;;;8.00;5.67;;;;;40.30;31.84;100103.03;5024931;28;45597;-76
2023/09/05 07:53:07;;;;;;;;;8.00;7.00;;;;;40.56;31.33;100129.63;5043160;28;45508;-75
2023/09/05 07:55:33;;;;;;;;;11.00;9.67;;;;;40.86;30.87;100144.78;5038947;28;45494;-76
2023/09/05 07:57:59;;;;;;;;;9.00;8.67;;;;;41.04;30.61;100135.63;5023061;28;45735;-76
2023/09/05 08:00:27;;;;;;;;;6.00;4.00;;;;;41.39;29.86;100136.56;5054896;28;45655;-75
2023/09/05 08:02:53;;;;;;;;;6.67;4.67;;;;;41.82;29.44;100137.41;5056653;28;45319;-74
2023/09/05 08:05:19;;;;;;;;;7.33;5.67;;;;;42.10;30.03;100154.47;5056046;28;45438;-75
2023/09/05 08:07:45;;;;;;;;;6.00;5.00;;;;;42.28;28.50;100135.13;5056595;28;45565;-74
2023/09/05 08:10:11;;;;;;;;;13.33;13.33;;;;;42.43;27.56;100133.41;5022374;28;45570;-74
2023/09/05 08:12:37;;;;;;;;;13.00;12.67;;;;;42.36;28.24;100131.53;5056684;28;45365;-74
2023/09/05 08:15:07;;;;;;;;;15.33;11.33;;;;;42.89;27.75;100122.78;5026619;28;47028;-76
2023/09/05 08:17:34;;;;;;;;;9.00;8.00;;;;;43.24;27.28;100131.66;5034958;28;45699;-78
2023/09/05 08:19:59;;;;;;;;;5.00;5.00;;;;;43.67;26.93;100136.81;5054679;28;45458;-75
2023/09/05 08:22:25;;;;;;;;;16.00;14.33;;;;;43.73;27.01;100143.53;5054523;28;45593;-79
2023/09/05 08:24:52;;;;;;;;;9.00;8.00;;;;;43.66;27.42;100130.47;5046181;28;46714;-73
2023/09/05 08:28:09;;;;;;;;;6.33;5.67;;;;;43.18;24.89;100142.50;5082479;27;45407;-71
2023/09/05 08:30:35;;;;;;;;;7.00;4.33;;;;;43.24;26.35;100136.28;5068899;28;45569;-72
2023/09/05 08:33:02;;;;;;;;;7.00;5.50;;;;;43.33;23.91;100145.41;5061423;28;45526;-73
2023/09/05 08:35:28;;;;;;;;;9.33;6.33;;;;;43.58;26.12;100137.91;5062503;28;45386;-72
2023/09/05 08:37:54;;;;;;;;;5.33;5.33;;;;;43.96;25.64;100133.41;5062519;27;45582;-73
2023/09/05 08:40:22;;;;;;;;;12.00;11.00;;;;;44.35;25.46;100142.63;5064009;28;46263;-72
2023/09/05 08:42:50;;;;;;;;;6.33;4.33;;;;;44.87;22.84;100139.13;5073738;27;45371;-73
2023/09/05 08:45:21;;;;;;;;;4.67;4.00;;;;;45.19;23.22;100132.41;5073719;27;45288;-72
2023/09/05 08:47:46;;;;;;;;;7.00;4.67;;;;;45.34;22.48;100129.66;5071621;28;46463;-72
2023/09/05 08:50:13;;;;;;;;;4.00;4.00;;;;;45.47;21.56;100134.50;5073194;28;45420;-74
2023/09/05 08:52:40;;;;;;;;;5.33;5.00;;;;;45.93;22.02;100145.28;5073079;27;45780;-72
2023/09/05 08:55:07;;;;;;;;;5.00;5.00;;;;;46.03;21.51;100140.31;5073641;27;45436;-72
2023/09/05 08:57:35;;;;;;;;;7.67;6.33;;;;;46.38;20.66;100147.88;5072450;27;46085;-72
2023/09/05 09:00:08;;;;;;;;;4.67;4.00;;;;;46.61;20.13;100136.66;5068849;28;45532;-72
2023/09/05 09:02:38;;;;;;;;;7.67;5.00;;;;;46.76;18.19;100128.25;5070641;28;45288;-73
2023/09/05 09:05:04;;;;;;;;;6.00;5.00;;;;;46.86;19.81;100139.00;5059351;28;45465;-73
2023/09/05 09:07:30;;;;;;;;;5.00;5.00;;;;;46.44;19.59;100130.53;5067463;28;46129;-73
2023/09/05 09:09:59;;;;;;;;;4.67;4.67;;;;;46.33;19.24;100126.38;5052267;28;45712;-72
2023/09/05 09:12:32;;;;;;;;;4.67;4.00;;;;;46.33;19.24;100126.38;5060537;28;45394;-73
2023/09/05 09:15:12;;;;;;;;;5.00;4.00;;;;;46.56;20.01;100140.03;5059054;27;45270;-73
2023/09/05 09:17:42;;;;;;;;;4.33;4.00;;;;;46.75;18.83;100127.41;5070420;28;45442;-74
2023/09/05 09:20:13;;;;;;;;;6.00;5.33;;;;;46.74;19.77;100122.94;5071662;27;45479;-72
2023/09/05 09:22:39;;;;;;;;;6.00;5.33;;;;;46.77;19.86;100119.75;5059369;27;45442;-73
2023/09/05 09:25:14;;;;;;;;;4.00;4.00;;;;;46.31;19.37;100119.38;5067139;28;45615;-72
2023/09/05 09:27:42;;;;;;;;;6.67;4.67;;;;;46.45;20.65;100125.91;5056566;28;45462;-75
2023/09/05 09:30:09;;;;;;;;;8.33;6.00;;;;;46.51;20.84;100120.41;5060896;27;45406;-74
2023/09/05 09:32:37;;;;;;;;;6.33;5.00;;;;;45.97;21.69;100119.00;5065703;28;45338;-69
2023/09/05 09:35:07;;;;;;;;;6.00;5.33;;;;;45.95;20.00;100123.84;5070079;27;45474;-69
2023/09/05 09:37:33;;;;;;;;;7.00;4.33;;;;;45.92;19.68;100121.47;5061069;27;45982;-71
2023/09/05 09:40:07;;;;;;;;;7.33;6.67;;;;;46.19;20.52;100128.16;5049922;28;45397;-87
2023/09/05 09:42:34;;;;;;;;;8.00;7.00;;;;;46.40;20.17;100119.03;5052939;28;45466;-86
2023/09/05 09:45:08;;;;;;;;;5.67;5.33;;;;;46.35;20.25;100124.28;5052123;28;46213;-81
2023/09/05 09:47:37;;;;;;;;;6.33;6.00;;;;;45.70;20.46;100126.09;5060668;28;45572;-87
2023/09/05 09:50:05;;;;;;;;;4.67;4.67;;;;;45.18;21.48;100121.56;5052104;28;45928;-84
2023/09/05 09:52:36;;;;;;;;;6.67;4.67;;;;;44.86;21.38;100126.34;5039762;28;45475;-83
2023/09/05 09:55:07;;;;;;;;;9.00;5.33;;;;;44.53;21.36;100134.06;5057210;28;45501;-84
2023/09/05 09:57:41;;;;;;;;;7.33;6.00;;;;;44.11;22.12;100122.50;5056168;28;45408;-81
2023/09/05 10:00:09;;;;;;;;;7.00;5.67;;;;;43.36;21.53;100123.91;5056400;28;45355;-71
2023/09/05 10:02:38;;;;;;;;;5.67;4.00;;;;;42.68;22.00;100126.06;5052846;28;45518;-73
2023/09/05 10:05:05;;;;;;;;;7.00;5.33;;;;;42.27;24.13;100134.28;5047432;28;45897;-81
2023/09/05 10:07:32;;;;;;;;;7.00;6.00;;;;;42.06;23.77;100120.19;5046512;28;47960;-85
2023/09/05 10:09:58;;;;;;;;;6.33;5.67;;;;;42.19;24.14;100123.28;5057447;28;47494;-75
2023/09/05 10:12:25;;;;;;;;;8.67;6.33;;;;;42.13;24.50;100133.06;5045797;28;45555;-70
2023/09/05 10:14:55;;;;;;;;;7.33;6.33;;;;;42.12;24.73;100125.00;5041046;28;45510;-70
2023/09/05 10:17:22;;;;;;;;;7.00;6.00;;;;;42.10;24.31;100130.66;5047769;28;45545;-72
2023/09/05 10:19:49;;;;;;;;;3.00;3.00;;;;;42.03;24.79;100135.09;5050647;28;45422;-69
2023/09/05 10:22:16;;;;;;;;;4.33;4.33;;;;;41.95;24.35;100136.97;5055497;28;45401;-69
2023/09/05 10:24:43;;;;;;;;;8.00;4.67;;;;;41.98;24.55;100137.44;5057421;28;46096;-69
2023/09/05 10:27:10;;;;;;;;;7.00;4.00;;;;;42.07;24.73;100130.16;5052043;28;47552;-70
2023/09/05 10:29:45;;;;;;;;;8.33;5.33;;;;;42.07;25.90;100125.50;5044609;28;45413;-70
2023/09/05 10:32:19;;;;;;;;;7.00;5.00;;;;;42.16;23.92;100131.00;5045001;28;45391;-69
2023/09/05 10:34:58;;;;;;;;;0.00;0.00;;;;;41.88;24.06;100131.25;5051516;28;45546;-69
2023/09/05 10:37:39;;;;;;;;;5.33;5.33;;;;;41.24;25.07;100120.72;5040530;28;46084;-70
2023/09/05 10:40:07;;;;;;;;;7.33;5.33;;;;;41.25;25.47;100122.44;5041129;28;45374;-70
2023/09/05 10:42:35;;;;;;;;;5.00;4.67;;;;;41.13;26.08;100116.34;5055811;28;45428;-70
2023/09/05 10:45:21;;;;;;;;;8.67;5.00;;;;;41.04;26.97;100110.97;5055993;28;45422;-69
2023/09/05 10:47:49;;;;;;;;;7.00;5.33;;;;;40.90;28.14;100118.78;5045577;28;46004;-70
2023/09/05 10:50:23;;;;;;;;;5.67;4.00;;;;;40.44;29.68;100112.59;5054227;28;45556;-69
2023/09/05 10:53:11;;;;;;;;;5.00;5.00;;;;;40.26;29.37;100109.00;5052720;28;45484;-69
2023/09/05 10:55:44;;;;;;;;;6.67;6.00;;;;;39.91;29.62;100110.69;5055492;28;45660;-69
2023/09/05 10:58:34;;;;;;;;;9.00;7.00;;;;;39.58;30.72;100115.78;5055901;28;45367;-70
2023/09/05 11:01:00;;;;;;;;;9.00;6.00;;;;;39.56;31.94;100115.91;5055636;28;45476;-70
2023/09/05 11:03:36;;;;;;;;;7.33;7.00;;;;;39.37;32.81;100108.63;5050169;28;45537;-69
2023/09/05 11:06:12;;;;;;;;;7.67;6.00;;;;;38.68;33.51;100106.25;5052643;28;45451;-70
2023/09/05 11:08:38;;;;;;;;;12.33;7.67;;;;;38.38;35.42;100108.13;5050863;28;45626;-68
2023/09/05 11:11:04;;;;;;;;;8.00;6.33;;;;;38.35;34.02;100112.00;5048409;28;45488;-69
2023/09/05 11:13:30;;;;;;;;;8.00;7.00;;;;;38.08;34.13;100111.84;5048243;28;45707;-69
2023/09/05 11:16:01;;;;;;;;;8.00;7.00;;;;;37.54;35.24;100109.38;5046439;28;45417;-69
2023/09/05 11:18:27;;;;;;;;;9.67;8.00;;;;;37.14;35.82;100102.06;5052025;28;46508;-69
2023/09/05 11:20:53;;;;;;;;;9.33;7.67;;;;;36.72;36.14;100103.97;5055316;28;45422;-69
2023/09/05 11:23:27;;;;;;;;;5.00;4.00;;;;;36.15;36.51;100090.66;5057319;28;45518;-69
2023/09/05 11:26:00;;;;;;;;;7.67;7.33;;;;;35.77;37.49;100104.69;5055104;28;45469;-69